sensor_id;sensor_type;location;lat;lon;timestamp;temperature;humidity
22813;DHT22;11573;51.334;3.244;2022-10-31T00:01:18;11.90;99.90
22813;DHT22;11573;51.334;3.244;2022-10-31T00:03:46;11.80;99.90
22813;DHT22;11573;51.334;3.244;2022-10-31T00:06:14;11.80;99.90
22813;DHT22;11573;51.334;3.244;2022-10-31T00:08:41;11.70;99.90
22813;DHT22;11573;51.334;3.244;2022-10-31T00:11:09;11.60;99.90
22813;DHT22;11573;51.334;3.244;2022-10-31T00:13:36;11.60;99.90
22813;DHT22;11573;51.334;3.244;2022-10-31T00:16:03;11.50;99.90
22813;DHT22;11573;51.334;3.244;2022-10-31T00:18:31;11.40;99.90
22813;DHT22;11573;51.334;3.244;2022-10-31T00:21:02;11.40;99.90
22813;DHT22;11573;51.334;3.244;2022-10-31T00:23:29;11.40;99.90
22813;DHT22;11573;51.334;3.244;2022-10-31T00:26:00;11.40;99.90
22813;DHT22;11573;51.334;3.244;2022-10-31T00:28:28;11.30;99.90
22813;DHT22;11573;51.334;3.244;2022-10-31T00:31:04;11.30;99.90
22813;DHT22;11573;51.334;3.244;2022-10-31T00:33:33;11.30;99.90
22813;DHT22;11573;51.334;3.244;2022-10-31T00:36:00;11.40;99.90
22813;DHT22;11573;51.334;3.244;2022-10-31T00:38:27;11.30;99.90
22813;DHT22;11573;51.334;3.244;2022-10-31T00:40:54;11.40;99.90
22813;DHT22;11573;51.334;3.244;2022-10-31T00:43:21;11.40;99.90
22813;DHT22;11573;51.334;3.244;2022-10-31T00:45:48;11.50;99.90
22813;DHT22;11573;51.334;3.244;2022-10-31T00:48:15;11.50;99.90
22813;DHT22;11573;51.334;3.244;2022-10-31T00:50:42;11.40;99.90
22813;DHT22;11573;51.334;3.244;2022-10-31T00:53:09;11.30;99.90
22813;DHT22;11573;51.334;3.244;2022-10-31T00:55:36;11.40;99.90
22813;DHT22;11573;51.334;3.244;2022-10-31T00:58:03;11.30;99.90
22813;DHT22;11573;51.334;3.244;2022-10-31T01:00:31;11.20;99.90
22813;DHT22;11573;51.334;3.244;2022-10-31T01:02:58;11.20;99.90
22813;DHT22;11573;51.334;3.244;2022-10-31T01:05:26;11.20;99.90
22813;DHT22;11573;51.334;3.244;2022-10-31T01:07:53;11.10;99.90
22813;DHT22;11573;51.334;3.244;2022-10-31T01:10:20;11.10;99.90
22813;DHT22;11573;51.334;3.244;2022-10-31T01:12:48;11.00;99.90
22813;DHT22;11573;51.334;3.244;2022-10-31T01:15:18;10.90;99.90
22813;DHT22;11573;51.334;3.244;2022-10-31T01:17:46;10.80;99.90
22813;DHT22;11573;51.334;3.244;2022-10-31T01:20:14;10.80;99.90
22813;DHT22;11573;51.334;3.244;2022-10-31T01:22:41;10.70;99.90
22813;DHT22;11573;51.334;3.244;2022-10-31T01:25:09;10.70;99.90
22813;DHT22;11573;51.334;3.244;2022-10-31T01:27:36;10.60;99.90
22813;DHT22;11573;51.334;3.244;2022-10-31T01:30:06;10.50;99.90
22813;DHT22;11573;51.334;3.244;2022-10-31T01:32:33;10.50;99.90
22813;DHT22;11573;51.334;3.244;2022-10-31T01:35:00;10.40;99.90
22813;DHT22;11573;51.334;3.244;2022-10-31T01:37:27;10.40;99.90
22813;DHT22;11573;51.334;3.244;2022-10-31T01:39:54;10.40;99.90
22813;DHT22;11573;51.334;3.244;2022-10-31T01:42:22;10.40;99.90
22813;DHT22;11573;51.334;3.244;2022-10-31T01:45:00;10.50;99.90
22813;DHT22;11573;51.334;3.244;2022-10-31T01:47:38;10.60;99.90
22813;DHT22;11573;51.334;3.244;2022-10-31T01:50:11;10.60;99.90
22813;DHT22;11573;51.334;3.244;2022-10-31T01:52:45;10.60;99.90
22813;DHT22;11573;51.334;3.244;2022-10-31T01:55:23;10.50;99.90
22813;DHT22;11573;51.334;3.244;2022-10-31T01:57:55;10.40;99.90
22813;DHT22;11573;51.334;3.244;2022-10-31T02:00:24;10.40;99.90
22813;DHT22;11573;51.334;3.244;2022-10-31T02:02:51;10.30;99.90
22813;DHT22;11573;51.334;3.244;2022-10-31T02:05:22;10.40;99.90
22813;DHT22;11573;51.334;3.244;2022-10-31T02:08:07;10.40;99.90
22813;DHT22;11573;51.334;3.244;2022-10-31T02:10:36;10.40;99.90
22813;DHT22;11573;51.334;3.244;2022-10-31T02:13:06;10.40;99.90
22813;DHT22;11573;51.334;3.244;2022-10-31T02:15:42;10.30;99.90
22813;DHT22;11573;51.334;3.244;2022-10-31T02:18:09;10.20;99.90
22813;DHT22;11573;51.334;3.244;2022-10-31T02:20:46;10.20;99.90
22813;DHT22;11573;51.334;3.244;2022-10-31T02:23:24;10.10;99.90
22813;DHT22;11573;51.334;3.244;2022-10-31T02:26:07;10.10;99.90
22813;DHT22;11573;51.334;3.244;2022-10-31T02:29:10;10.10;99.90
22813;DHT22;11573;51.334;3.244;2022-10-31T02:31:54;10.10;99.90
22813;DHT22;11573;51.334;3.244;2022-10-31T02:34:38;9.90;99.90
22813;DHT22;11573;51.334;3.244;2022-10-31T02:37:34;9.90;99.90
22813;DHT22;11573;51.334;3.244;2022-10-31T02:43:05;9.80;99.90
22813;DHT22;11573;51.334;3.244;2022-10-31T02:45:41;9.80;99.90
22813;DHT22;11573;51.334;3.244;2022-10-31T02:48:17;9.80;99.90
22813;DHT22;11573;51.334;3.244;2022-10-31T02:50:52;10.00;99.90
22813;DHT22;11573;51.334;3.244;2022-10-31T02:53:19;10.00;99.90
22813;DHT22;11573;51.334;3.244;2022-10-31T02:56:02;9.90;99.90
22813;DHT22;11573;51.334;3.244;2022-10-31T02:58:35;9.90;99.90
22813;DHT22;11573;51.334;3.244;2022-10-31T03:01:39;9.70;99.90
22813;DHT22;11573;51.334;3.244;2022-10-31T03:07:03;9.60;99.90
22813;DHT22;11573;51.334;3.244;2022-10-31T03:09:50;9.50;99.90
22813;DHT22;11573;51.334;3.244;2022-10-31T03:13:08;9.60;99.90
22813;DHT22;11573;51.334;3.244;2022-10-31T03:15:49;9.70;99.90
22813;DHT22;11573;51.334;3.244;2022-10-31T03:18:26;9.70;99.90
22813;DHT22;11573;51.334;3.244;2022-10-31T03:21:35;9.70;99.90
22813;DHT22;11573;51.334;3.244;2022-10-31T03:24:06;9.70;99.90
22813;DHT22;11573;51.334;3.244;2022-10-31T03:26:36;9.60;99.90
22813;DHT22;11573;51.334;3.244;2022-10-31T03:29:06;9.60;99.90
22813;DHT22;11573;51.334;3.244;2022-10-31T03:32:06;9.50;99.90
22813;DHT22;11573;51.334;3.244;2022-10-31T03:34:36;9.50;99.90
22813;DHT22;11573;51.334;3.244;2022-10-31T03:37:07;9.40;99.90
22813;DHT22;11573;51.334;3.244;2022-10-31T03:39:37;9.30;99.90
22813;DHT22;11573;51.334;3.244;2022-10-31T03:42:11;9.30;99.90
22813;DHT22;11573;51.334;3.244;2022-10-31T03:44:42;9.30;99.90
22813;DHT22;11573;51.334;3.244;2022-10-31T03:47:11;9.30;99.90
22813;DHT22;11573;51.334;3.244;2022-10-31T03:49:38;9.30;99.90
22813;DHT22;11573;51.334;3.244;2022-10-31T03:52:10;9.30;99.90
22813;DHT22;11573;51.334;3.244;2022-10-31T03:54:41;9.30;99.90
22813;DHT22;11573;51.334;3.244;2022-10-31T03:57:31;9.30;99.90
22813;DHT22;11573;51.334;3.244;2022-10-31T04:00:12;9.30;99.90
22813;DHT22;11573;51.334;3.244;2022-10-31T04:03:03;9.30;99.90
22813;DHT22;11573;51.334;3.244;2022-10-31T04:05:33;9.30;99.90
22813;DHT22;11573;51.334;3.244;2022-10-31T04:08:04;9.30;99.90
22813;DHT22;11573;51.334;3.244;2022-10-31T04:10:33;9.30;99.90
22813;DHT22;11573;51.334;3.244;2022-10-31T04:13:07;9.30;99.90
22813;DHT22;11573;51.334;3.244;2022-10-31T04:15:44;9.30;99.90
22813;DHT22;11573;51.334;3.244;2022-10-31T04:18:12;9.30;99.90
22813;DHT22;11573;51.334;3.244;2022-10-31T04:20:41;9.30;99.90
22813;DHT22;11573;51.334;3.244;2022-10-31T04:23:20;9.20;99.90
22813;DHT22;11573;51.334;3.244;2022-10-31T04:25:48;9.30;99.90
22813;DHT22;11573;51.334;3.244;2022-10-31T04:28:16;9.30;99.90
22813;DHT22;11573;51.334;3.244;2022-10-31T04:30:48;9.30;99.90
22813;DHT22;11573;51.334;3.244;2022-10-31T04:33:16;9.40;99.90
22813;DHT22;11573;51.334;3.244;2022-10-31T04:35:45;9.40;99.90
22813;DHT22;11573;51.334;3.244;2022-10-31T04:38:12;9.40;99.90
22813;DHT22;11573;51.334;3.244;2022-10-31T04:40:40;9.50;99.90
22813;DHT22;11573;51.334;3.244;2022-10-31T04:43:27;9.50;99.90
22813;DHT22;11573;51.334;3.244;2022-10-31T04:45:54;9.60;99.90
22813;DHT22;11573;51.334;3.244;2022-10-31T04:48:21;9.60;99.90
22813;DHT22;11573;51.334;3.244;2022-10-31T04:50:48;9.60;99.90
22813;DHT22;11573;51.334;3.244;2022-10-31T04:53:15;9.60;99.90
22813;DHT22;11573;51.334;3.244;2022-10-31T04:56:02;9.50;99.90
22813;DHT22;11573;51.334;3.244;2022-10-31T04:58:41;9.50;99.90
22813;DHT22;11573;51.334;3.244;2022-10-31T05:01:09;9.50;99.90
22813;DHT22;11573;51.334;3.244;2022-10-31T05:03:36;9.40;99.90
22813;DHT22;11573;51.334;3.244;2022-10-31T05:06:06;9.40;99.90
22813;DHT22;11573;51.334;3.244;2022-10-31T05:08:34;9.30;99.90
22813;DHT22;11573;51.334;3.244;2022-10-31T05:11:04;9.30;99.90
22813;DHT22;11573;51.334;3.244;2022-10-31T05:13:32;9.20;99.90
22813;DHT22;11573;51.334;3.244;2022-10-31T05:16:19;9.20;99.90
22813;DHT22;11573;51.334;3.244;2022-10-31T05:19:09;9.10;99.90
22813;DHT22;11573;51.334;3.244;2022-10-31T05:21:55;9.10;99.90
22813;DHT22;11573;51.334;3.244;2022-10-31T05:24:23;9.10;99.90
22813;DHT22;11573;51.334;3.244;2022-10-31T05:26:49;9.00;99.90
22813;DHT22;11573;51.334;3.244;2022-10-31T05:29:16;9.10;99.90
22813;DHT22;11573;51.334;3.244;2022-10-31T05:31:43;9.10;99.90
22813;DHT22;11573;51.334;3.244;2022-10-31T05:34:30;9.10;99.90
22813;DHT22;11573;51.334;3.244;2022-10-31T05:37:23;9.30;99.90
22813;DHT22;11573;51.334;3.244;2022-10-31T05:39:51;9.30;99.90
22813;DHT22;11573;51.334;3.244;2022-10-31T05:42:18;9.30;99.90
22813;DHT22;11573;51.334;3.244;2022-10-31T05:44:45;9.20;99.90
22813;DHT22;11573;51.334;3.244;2022-10-31T05:47:20;9.20;99.90
22813;DHT22;11573;51.334;3.244;2022-10-31T05:50:06;9.20;99.90
22813;DHT22;11573;51.334;3.244;2022-10-31T05:52:45;9.30;99.90
22813;DHT22;11573;51.334;3.244;2022-10-31T05:55:29;9.40;99.90
22813;DHT22;11573;51.334;3.244;2022-10-31T05:58:03;9.50;99.90
22813;DHT22;11573;51.334;3.244;2022-10-31T06:00:32;9.50;99.90
22813;DHT22;11573;51.334;3.244;2022-10-31T06:03:08;9.50;99.90
22813;DHT22;11573;51.334;3.244;2022-10-31T06:06:00;9.50;99.90
22813;DHT22;11573;51.334;3.244;2022-10-31T06:08:40;9.50;99.90
22813;DHT22;11573;51.334;3.244;2022-10-31T06:11:14;9.40;99.90
22813;DHT22;11573;51.334;3.244;2022-10-31T06:14:00;9.30;99.90
22813;DHT22;11573;51.334;3.244;2022-10-31T06:16:36;9.30;99.90
22813;DHT22;11573;51.334;3.244;2022-10-31T06:19:26;9.30;99.90
22813;DHT22;11573;51.334;3.244;2022-10-31T06:21:53;9.20;99.90
22813;DHT22;11573;51.334;3.244;2022-10-31T06:24:19;9.20;99.90
22813;DHT22;11573;51.334;3.244;2022-10-31T06:26:52;9.10;99.90
22813;DHT22;11573;51.334;3.244;2022-10-31T06:29:20;9.00;99.90
22813;DHT22;11573;51.334;3.244;2022-10-31T06:32:10;9.10;99.90
22813;DHT22;11573;51.334;3.244;2022-10-31T06:34:42;9.10;99.90
22813;DHT22;11573;51.334;3.244;2022-10-31T06:37:12;9.10;99.90
22813;DHT22;11573;51.334;3.244;2022-10-31T06:39:42;9.20;99.90
22813;DHT22;11573;51.334;3.244;2022-10-31T06:42:11;9.20;99.90
22813;DHT22;11573;51.334;3.244;2022-10-31T06:44:38;9.20;99.90
22813;DHT22;11573;51.334;3.244;2022-10-31T06:47:24;9.20;99.90
22813;DHT22;11573;51.334;3.244;2022-10-31T06:50:06;9.20;99.90
22813;DHT22;11573;51.334;3.244;2022-10-31T06:52:33;9.20;99.90
22813;DHT22;11573;51.334;3.244;2022-10-31T06:55:01;9.20;99.90
22813;DHT22;11573;51.334;3.244;2022-10-31T06:57:30;9.30;99.90
22813;DHT22;11573;51.334;3.244;2022-10-31T06:59:59;9.30;99.90
22813;DHT22;11573;51.334;3.244;2022-10-31T07:02:41;9.40;99.90
22813;DHT22;11573;51.334;3.244;2022-10-31T07:05:08;9.50;99.90
22813;DHT22;11573;51.334;3.244;2022-10-31T07:07:35;9.60;99.90
22813;DHT22;11573;51.334;3.244;2022-10-31T07:10:03;9.70;99.90
22813;DHT22;11573;51.334;3.244;2022-10-31T07:12:48;9.80;99.90
22813;DHT22;11573;51.334;3.244;2022-10-31T07:15:15;9.80;99.90
22813;DHT22;11573;51.334;3.244;2022-10-31T07:17:43;9.80;99.90
22813;DHT22;11573;51.334;3.244;2022-10-31T07:20:10;9.90;99.90
22813;DHT22;11573;51.334;3.244;2022-10-31T07:22:37;9.90;99.90
22813;DHT22;11573;51.334;3.244;2022-10-31T07:25:07;9.90;99.90
22813;DHT22;11573;51.334;3.244;2022-10-31T07:27:53;9.90;99.90
22813;DHT22;11573;51.334;3.244;2022-10-31T07:30:20;9.90;99.90
22813;DHT22;11573;51.334;3.244;2022-10-31T07:32:50;10.00;99.90
22813;DHT22;11573;51.334;3.244;2022-10-31T07:35:20;10.00;99.90
22813;DHT22;11573;51.334;3.244;2022-10-31T07:38:05;10.00;99.90
22813;DHT22;11573;51.334;3.244;2022-10-31T07:40:32;10.10;99.90
22813;DHT22;11573;51.334;3.244;2022-10-31T07:42:59;10.10;99.90
22813;DHT22;11573;51.334;3.244;2022-10-31T07:45:53;10.10;99.90
22813;DHT22;11573;51.334;3.244;2022-10-31T07:48:46;10.20;99.90
22813;DHT22;11573;51.334;3.244;2022-10-31T07:51:31;10.30;99.90
22813;DHT22;11573;51.334;3.244;2022-10-31T07:54:17;10.30;99.90
22813;DHT22;11573;51.334;3.244;2022-10-31T07:56:44;10.30;99.90
22813;DHT22;11573;51.334;3.244;2022-10-31T07:59:11;10.30;99.90
22813;DHT22;11573;51.334;3.244;2022-10-31T08:01:40;10.40;99.90
22813;DHT22;11573;51.334;3.244;2022-10-31T08:04:25;10.50;99.90
22813;DHT22;11573;51.334;3.244;2022-10-31T08:07:11;10.60;99.90
22813;DHT22;11573;51.334;3.244;2022-10-31T08:09:43;10.60;99.90
22813;DHT22;11573;51.334;3.244;2022-10-31T08:12:18;10.60;99.90
22813;DHT22;11573;51.334;3.244;2022-10-31T08:14:45;10.60;99.90
22813;DHT22;11573;51.334;3.244;2022-10-31T08:17:14;10.70;99.90
22813;DHT22;11573;51.334;3.244;2022-10-31T08:19:52;10.70;99.90
22813;DHT22;11573;51.334;3.244;2022-10-31T08:22:24;10.80;99.90
22813;DHT22;11573;51.334;3.244;2022-10-31T08:24:51;10.80;99.90
22813;DHT22;11573;51.334;3.244;2022-10-31T08:27:18;10.90;99.90
22813;DHT22;11573;51.334;3.244;2022-10-31T08:29:45;11.00;99.90
22813;DHT22;11573;51.334;3.244;2022-10-31T08:32:12;11.00;99.90
22813;DHT22;11573;51.334;3.244;2022-10-31T08:34:51;11.00;99.90
22813;DHT22;11573;51.334;3.244;2022-10-31T08:37:38;11.00;99.90
22813;DHT22;11573;51.334;3.244;2022-10-31T08:40:06;11.00;99.90
22813;DHT22;11573;51.334;3.244;2022-10-31T08:42:34;11.20;99.90
22813;DHT22;11573;51.334;3.244;2022-10-31T08:45:01;11.20;99.90
22813;DHT22;11573;51.334;3.244;2022-10-31T08:47:30;11.30;99.90
22813;DHT22;11573;51.334;3.244;2022-10-31T08:49:57;11.40;99.90
22813;DHT22;11573;51.334;3.244;2022-10-31T08:52:24;11.60;99.90
22813;DHT22;11573;51.334;3.244;2022-10-31T08:55:12;11.70;99.90
22813;DHT22;11573;51.334;3.244;2022-10-31T08:57:57;12.00;99.90
22813;DHT22;11573;51.334;3.244;2022-10-31T09:00:34;12.40;99.90
22813;DHT22;11573;51.334;3.244;2022-10-31T09:03:12;12.60;99.90
22813;DHT22;11573;51.334;3.244;2022-10-31T09:05:42;12.80;99.90
22813;DHT22;11573;51.334;3.244;2022-10-31T09:08:11;13.20;99.90
22813;DHT22;11573;51.334;3.244;2022-10-31T09:10:44;13.30;99.90
22813;DHT22;11573;51.334;3.244;2022-10-31T09:13:16;13.20;99.90
22813;DHT22;11573;51.334;3.244;2022-10-31T09:16:07;13.30;99.90
22813;DHT22;11573;51.334;3.244;2022-10-31T09:18:34;13.30;99.90
22813;DHT22;11573;51.334;3.244;2022-10-31T09:21:01;13.40;99.90
22813;DHT22;11573;51.334;3.244;2022-10-31T09:23:30;13.40;99.90
22813;DHT22;11573;51.334;3.244;2022-10-31T09:26:00;13.40;99.90
22813;DHT22;11573;51.334;3.244;2022-10-31T09:28:35;13.50;99.90
22813;DHT22;11573;51.334;3.244;2022-10-31T09:31:07;13.70;99.90
22813;DHT22;11573;51.334;3.244;2022-10-31T09:33:49;13.80;99.90
22813;DHT22;11573;51.334;3.244;2022-10-31T09:36:37;13.90;99.90
22813;DHT22;11573;51.334;3.244;2022-10-31T09:39:08;14.10;99.90
22813;DHT22;11573;51.334;3.244;2022-10-31T09:44:26;14.30;99.90
22813;DHT22;11573;51.334;3.244;2022-10-31T09:55:44;14.70;99.90
22813;DHT22;11573;51.334;3.244;2022-10-31T09:58:18;14.80;99.90
22813;DHT22;11573;51.334;3.244;2022-10-31T10:00:47;14.60;99.90
22813;DHT22;11573;51.334;3.244;2022-10-31T10:03:33;14.50;99.90
22813;DHT22;11573;51.334;3.244;2022-10-31T10:06:24;14.40;99.90
22813;DHT22;11573;51.334;3.244;2022-10-31T10:09:13;14.10;99.90
22813;DHT22;11573;51.334;3.244;2022-10-31T10:21:03;14.00;99.90
22813;DHT22;11573;51.334;3.244;2022-10-31T10:23:54;14.00;99.90
22813;DHT22;11573;51.334;3.244;2022-10-31T10:26:30;14.00;99.90
22813;DHT22;11573;51.334;3.244;2022-10-31T10:32:01;14.30;99.90
22813;DHT22;11573;51.334;3.244;2022-10-31T10:34:35;14.60;99.90
22813;DHT22;11573;51.334;3.244;2022-10-31T10:37:34;15.00;99.90
22813;DHT22;11573;51.334;3.244;2022-10-31T10:40:23;15.40;99.90
22813;DHT22;11573;51.334;3.244;2022-10-31T10:54:48;16.20;99.90
22813;DHT22;11573;51.334;3.244;2022-10-31T10:59:57;15.80;99.90
22813;DHT22;11573;51.334;3.244;2022-10-31T11:02:27;15.80;99.90
22813;DHT22;11573;51.334;3.244;2022-10-31T11:04:59;15.70;99.90
22813;DHT22;11573;51.334;3.244;2022-10-31T11:07:38;15.60;99.90
22813;DHT22;11573;51.334;3.244;2022-10-31T11:10:11;15.50;99.90
22813;DHT22;11573;51.334;3.244;2022-10-31T11:12:42;15.30;99.90
22813;DHT22;11573;51.334;3.244;2022-10-31T11:15:22;15.40;99.90
22813;DHT22;11573;51.334;3.244;2022-10-31T11:17:52;15.50;99.90
22813;DHT22;11573;51.334;3.244;2022-10-31T11:22:48;15.90;99.90
22813;DHT22;11573;51.334;3.244;2022-10-31T11:25:22;16.20;99.90
22813;DHT22;11573;51.334;3.244;2022-10-31T11:28:09;16.40;99.90
22813;DHT22;11573;51.334;3.244;2022-10-31T11:30:50;16.50;99.90
22813;DHT22;11573;51.334;3.244;2022-10-31T11:33:46;16.50;99.90
22813;DHT22;11573;51.334;3.244;2022-10-31T11:36:21;16.70;99.90
22813;DHT22;11573;51.334;3.244;2022-10-31T11:38:49;16.70;99.90
22813;DHT22;11573;51.334;3.244;2022-10-31T11:41:18;16.80;99.90
22813;DHT22;11573;51.334;3.244;2022-10-31T11:43:59;16.90;99.90
22813;DHT22;11573;51.334;3.244;2022-10-31T11:46:34;16.90;99.90
22813;DHT22;11573;51.334;3.244;2022-10-31T11:49:02;16.90;99.90
22813;DHT22;11573;51.334;3.244;2022-10-31T11:51:33;17.00;99.90
22813;DHT22;11573;51.334;3.244;2022-10-31T11:54:03;17.10;99.90
22813;DHT22;11573;51.334;3.244;2022-10-31T11:56:41;17.10;99.90
22813;DHT22;11573;51.334;3.244;2022-10-31T11:59:38;17.00;99.90
22813;DHT22;11573;51.334;3.244;2022-10-31T12:02:18;16.80;99.90
22813;DHT22;11573;51.334;3.244;2022-10-31T12:05:01;16.90;99.90
22813;DHT22;11573;51.334;3.244;2022-10-31T12:07:29;17.00;99.90
22813;DHT22;11573;51.334;3.244;2022-10-31T12:09:57;17.20;99.90
22813;DHT22;11573;51.334;3.244;2022-10-31T12:15:35;17.40;99.90
22813;DHT22;11573;51.334;3.244;2022-10-31T12:23:56;17.20;99.90
22813;DHT22;11573;51.334;3.244;2022-10-31T12:32:34;17.10;99.90
22813;DHT22;11573;51.334;3.244;2022-10-31T12:40:57;17.40;99.90
22813;DHT22;11573;51.334;3.244;2022-10-31T12:52:14;17.80;99.90
22813;DHT22;11573;51.334;3.244;2022-10-31T12:54:55;17.60;99.90
22813;DHT22;11573;51.334;3.244;2022-10-31T12:57:31;17.60;99.90
22813;DHT22;11573;51.334;3.244;2022-10-31T13:00:12;17.40;99.90
22813;DHT22;11573;51.334;3.244;2022-10-31T13:02:57;17.30;99.90
22813;DHT22;11573;51.334;3.244;2022-10-31T13:05:36;17.50;99.90
22813;DHT22;11573;51.334;3.244;2022-10-31T13:08:07;17.40;99.90
22813;DHT22;11573;51.334;3.244;2022-10-31T13:13:27;17.30;99.90
22813;DHT22;11573;51.334;3.244;2022-10-31T13:18:46;17.20;99.90
22813;DHT22;11573;51.334;3.244;2022-10-31T13:21:27;17.10;99.90
22813;DHT22;11573;51.334;3.244;2022-10-31T13:24:00;17.10;99.90
22813;DHT22;11573;51.334;3.244;2022-10-31T13:26:47;17.10;99.90
22813;DHT22;11573;51.334;3.244;2022-10-31T13:29:33;17.10;99.90
22813;DHT22;11573;51.334;3.244;2022-10-31T13:32:04;16.90;99.90
22813;DHT22;11573;51.334;3.244;2022-10-31T13:34:40;16.90;99.90
22813;DHT22;11573;51.334;3.244;2022-10-31T13:37:40;16.90;99.90
22813;DHT22;11573;51.334;3.244;2022-10-31T13:45:20;17.00;99.90
22813;DHT22;11573;51.334;3.244;2022-10-31T13:48:40;16.90;99.90
22813;DHT22;11573;51.334;3.244;2022-10-31T13:51:04;17.00;99.90
22813;DHT22;11573;51.334;3.244;2022-10-31T13:53:57;17.10;99.90
22813;DHT22;11573;51.334;3.244;2022-10-31T13:56:28;17.20;99.90
22813;DHT22;11573;51.334;3.244;2022-10-31T13:59:23;17.20;99.90
22813;DHT22;11573;51.334;3.244;2022-10-31T14:02:00;17.10;99.90
22813;DHT22;11573;51.334;3.244;2022-10-31T14:07:10;17.00;99.90
22813;DHT22;11573;51.334;3.244;2022-10-31T14:10:06;17.10;99.90
22813;DHT22;11573;51.334;3.244;2022-10-31T14:12:52;17.10;99.90
22813;DHT22;11573;51.334;3.244;2022-10-31T14:15:25;17.10;99.90
22813;DHT22;11573;51.334;3.244;2022-10-31T14:18:00;17.00;99.90
22813;DHT22;11573;51.334;3.244;2022-10-31T14:20:41;17.00;99.90
22813;DHT22;11573;51.334;3.244;2022-10-31T14:25:40;16.80;99.90
22813;DHT22;11573;51.334;3.244;2022-10-31T14:28:32;16.80;99.90
22813;DHT22;11573;51.334;3.244;2022-10-31T14:31:00;16.60;99.90
22813;DHT22;11573;51.334;3.244;2022-10-31T14:33:29;16.60;99.90
22813;DHT22;11573;51.334;3.244;2022-10-31T14:36:08;16.50;99.90
22813;DHT22;11573;51.334;3.244;2022-10-31T14:38:53;16.60;99.90
22813;DHT22;11573;51.334;3.244;2022-10-31T14:41:36;16.50;99.90
22813;DHT22;11573;51.334;3.244;2022-10-31T14:49:57;16.60;99.90
22813;DHT22;11573;51.334;3.244;2022-10-31T14:52:29;16.50;99.90
22813;DHT22;11573;51.334;3.244;2022-10-31T14:54:58;16.50;99.90
22813;DHT22;11573;51.334;3.244;2022-10-31T14:57:29;16.50;99.90
22813;DHT22;11573;51.334;3.244;2022-10-31T15:00:02;16.40;99.90
22813;DHT22;11573;51.334;3.244;2022-10-31T15:03:10;16.30;99.90
22813;DHT22;11573;51.334;3.244;2022-10-31T15:05:49;16.30;99.90
22813;DHT22;11573;51.334;3.244;2022-10-31T15:08:38;16.20;99.90
22813;DHT22;11573;51.334;3.244;2022-10-31T15:11:15;16.20;99.90
22813;DHT22;11573;51.334;3.244;2022-10-31T15:13:51;16.10;99.90
22813;DHT22;11573;51.334;3.244;2022-10-31T15:16:39;16.10;99.90
22813;DHT22;11573;51.334;3.244;2022-10-31T15:19:21;16.10;99.90
22813;DHT22;11573;51.334;3.244;2022-10-31T15:21:50;16.00;99.90
22813;DHT22;11573;51.334;3.244;2022-10-31T15:24:18;15.90;99.90
22813;DHT22;11573;51.334;3.244;2022-10-31T15:26:49;15.90;99.90
22813;DHT22;11573;51.334;3.244;2022-10-31T15:29:19;15.80;99.90
22813;DHT22;11573;51.334;3.244;2022-10-31T15:31:50;15.80;99.90
22813;DHT22;11573;51.334;3.244;2022-10-31T15:34:39;15.70;99.90
22813;DHT22;11573;51.334;3.244;2022-10-31T15:37:20;15.70;99.90
22813;DHT22;11573;51.334;3.244;2022-10-31T15:39:49;15.70;99.90
22813;DHT22;11573;51.334;3.244;2022-10-31T15:42:28;15.70;99.90
22813;DHT22;11573;51.334;3.244;2022-10-31T15:45:05;15.70;99.90
22813;DHT22;11573;51.334;3.244;2022-10-31T15:47:33;15.70;99.90
22813;DHT22;11573;51.334;3.244;2022-10-31T15:50:01;15.70;99.90
22813;DHT22;11573;51.334;3.244;2022-10-31T15:53:02;15.70;99.90
22813;DHT22;11573;51.334;3.244;2022-10-31T15:55:24;15.70;99.90
22813;DHT22;11573;51.334;3.244;2022-10-31T15:58:00;15.60;99.90
22813;DHT22;11573;51.334;3.244;2022-10-31T16:00:34;15.60;99.90
22813;DHT22;11573;51.334;3.244;2022-10-31T16:03:05;15.40;99.90
22813;DHT22;11573;51.334;3.244;2022-10-31T16:05:38;15.30;99.90
22813;DHT22;11573;51.334;3.244;2022-10-31T16:08:26;15.20;99.90
22813;DHT22;11573;51.334;3.244;2022-10-31T16:13:40;15.10;99.90
22813;DHT22;11573;51.334;3.244;2022-10-31T16:16:15;15.00;99.90
22813;DHT22;11573;51.334;3.244;2022-10-31T16:19:04;14.90;99.90
22813;DHT22;11573;51.334;3.244;2022-10-31T16:21:37;14.90;99.90
22813;DHT22;11573;51.334;3.244;2022-10-31T16:24:16;14.90;99.90
22813;DHT22;11573;51.334;3.244;2022-10-31T16:26:57;14.90;99.90
22813;DHT22;11573;51.334;3.244;2022-10-31T16:29:43;14.80;99.90
22813;DHT22;11573;51.334;3.244;2022-10-31T16:35:17;14.70;99.90
22813;DHT22;11573;51.334;3.244;2022-10-31T16:37:44;14.50;99.90
22813;DHT22;11573;51.334;3.244;2022-10-31T16:40:13;14.40;99.90
22813;DHT22;11573;51.334;3.244;2022-10-31T16:42:44;14.40;99.90
22813;DHT22;11573;51.334;3.244;2022-10-31T16:45:23;14.30;99.90
22813;DHT22;11573;51.334;3.244;2022-10-31T16:47:50;14.30;99.90
22813;DHT22;11573;51.334;3.244;2022-10-31T16:50:21;14.30;99.90
22813;DHT22;11573;51.334;3.244;2022-10-31T16:52:48;14.40;99.90
22813;DHT22;11573;51.334;3.244;2022-10-31T16:56:03;14.30;99.90
22813;DHT22;11573;51.334;3.244;2022-10-31T16:58:31;14.30;99.90
22813;DHT22;11573;51.334;3.244;2022-10-31T17:01:00;14.20;99.90
22813;DHT22;11573;51.334;3.244;2022-10-31T17:03:27;14.10;99.90
22813;DHT22;11573;51.334;3.244;2022-10-31T17:05:54;14.30;99.90
22813;DHT22;11573;51.334;3.244;2022-10-31T17:08:22;14.30;99.90
22813;DHT22;11573;51.334;3.244;2022-10-31T17:10:52;14.30;99.90
22813;DHT22;11573;51.334;3.244;2022-10-31T17:13:22;14.30;99.90
22813;DHT22;11573;51.334;3.244;2022-10-31T17:15:53;14.20;99.90
22813;DHT22;11573;51.334;3.244;2022-10-31T17:18:21;14.20;99.90
22813;DHT22;11573;51.334;3.244;2022-10-31T17:20:57;14.10;99.90
22813;DHT22;11573;51.334;3.244;2022-10-31T17:23:26;14.10;99.90
22813;DHT22;11573;51.334;3.244;2022-10-31T17:25:54;14.10;99.90
22813;DHT22;11573;51.334;3.244;2022-10-31T17:28:21;14.00;99.90
22813;DHT22;11573;51.334;3.244;2022-10-31T17:30:48;14.00;99.90
22813;DHT22;11573;51.334;3.244;2022-10-31T17:33:16;14.00;99.90
22813;DHT22;11573;51.334;3.244;2022-10-31T17:35:43;14.00;99.90
22813;DHT22;11573;51.334;3.244;2022-10-31T17:38:11;13.90;99.90
22813;DHT22;11573;51.334;3.244;2022-10-31T17:40:38;13.90;99.90
22813;DHT22;11573;51.334;3.244;2022-10-31T17:43:08;14.00;99.90
22813;DHT22;11573;51.334;3.244;2022-10-31T17:45:40;13.90;99.90
22813;DHT22;11573;51.334;3.244;2022-10-31T17:48:11;13.90;99.90
22813;DHT22;11573;51.334;3.244;2022-10-31T17:50:38;13.80;99.90
22813;DHT22;11573;51.334;3.244;2022-10-31T17:53:05;13.70;99.90
22813;DHT22;11573;51.334;3.244;2022-10-31T17:55:32;13.70;99.90
22813;DHT22;11573;51.334;3.244;2022-10-31T17:58:03;13.70;99.90
22813;DHT22;11573;51.334;3.244;2022-10-31T18:00:30;13.70;99.90
22813;DHT22;11573;51.334;3.244;2022-10-31T18:02:57;13.60;99.90
22813;DHT22;11573;51.334;3.244;2022-10-31T18:05:24;13.60;99.90